Huslia Airport Huslia US
ICAO: PAHL
IATA:
Category: Medium
Scheduled Services:

Elevation: 220 ft
TransAlt. 18000 ft.

Airport Communications:
AWOS 3:135.75
ANCHORAGE CNTR:127
CTAF:122.8
FAIRBANKS RDO:122.4

PAHL Zoom In..

If you have problems with the map follow the link
https://www.worldairports.se/pages/airport.php?
ICAO=PAHL

Runways:

(A) RW 03 length 4000 ft width 75 ft
---- / hdg 32

(B) RW 21 length 4000 ft width 75 ft
---- / hdg 212

Location; PAHL
Day. 21 / Time. 18.56 Zulu
* Altimeter: 29.50
* Temperature: 01° c. 33.8°f.
* Wind from: 060° Speed 13 kn with Gusts up to 18 kn.
Dewpoint: -03° c.
Visibility: 10 Statute Miles.
Clouds: Clear (automated report).

PAHL 211856Z AUTO 06013G18KT 10SM CLR 01/M03 A2950 RMK AO2 SLP001 T00061033 FZRANO


Wind From 060°
Speed 13 kn.

 
 
jpsmedia.com for Web Design worldairports.se 2018   terms of use